createdAt,value
2019-03-03T00:01:18.510Z,8.63
2019-03-03T00:03:47.198Z,10.10
2019-03-03T00:06:15.971Z,8.97
2019-03-03T00:08:44.769Z,10.00
2019-03-03T00:11:13.664Z,7.53
2019-03-03T00:13:42.347Z,8.97
2019-03-03T00:16:11.131Z,8.50
2019-03-03T00:18:39.925Z,11.50
2019-03-03T00:21:08.739Z,8.20
2019-03-03T00:23:37.532Z,12.40
2019-03-03T00:26:06.289Z,8.10
2019-03-03T00:28:34.972Z,8.87
2019-03-03T00:31:03.760Z,8.70
2019-03-03T00:33:32.446Z,6.00
2019-03-03T00:36:01.235Z,7.90
2019-03-03T00:38:31.564Z,10.53
2019-03-03T00:41:07.821Z,8.33
2019-03-03T00:43:38.055Z,15.20
2019-03-03T00:46:14.424Z,7.77
2019-03-03T00:49:00.715Z,5.90
2019-03-03T00:51:31.042Z,8.57
2019-03-03T00:54:10.065Z,9.63
2019-03-03T00:56:40.396Z,7.23
2019-03-03T00:59:13.583Z,9.70
2019-03-03T01:01:43.919Z,8.90
2019-03-03T01:04:23.351Z,9.73
2019-03-03T01:06:53.675Z,6.20
2019-03-03T01:09:37.599Z,8.67
2019-03-03T01:12:08.158Z,7.30
2019-03-03T01:14:39.788Z,11.47
2019-03-03T01:17:12.789Z,7.80
2019-03-03T01:19:49.056Z,10.10
2019-03-03T01:22:34.881Z,9.20
2019-03-03T01:25:04.348Z,7.43
2019-03-03T01:27:33.032Z,10.73
2019-03-03T01:30:01.721Z,6.80
2019-03-03T01:32:30.505Z,8.07
2019-03-03T01:34:59.296Z,9.23
2019-03-03T01:37:27.981Z,9.90
2019-03-03T01:39:56.666Z,7.70
2019-03-03T01:42:25.353Z,10.70
2019-03-03T01:44:54.145Z,10.47
2019-03-03T01:47:22.933Z,12.40
2019-03-03T01:49:51.620Z,6.93
2019-03-03T01:52:20.314Z,7.97
2019-03-03T01:54:48.996Z,10.37
2019-03-03T01:57:17.795Z,12.20
2019-03-03T01:59:46.573Z,6.83
2019-03-03T02:02:15.363Z,10.23
2019-03-03T02:04:44.149Z,6.93
2019-03-03T02:07:12.938Z,7.80
2019-03-03T02:09:41.829Z,7.10
2019-03-03T02:12:10.614Z,7.90
2019-03-03T02:14:39.514Z,13.83
2019-03-03T02:17:09.223Z,7.40
2019-03-03T02:19:38.024Z,9.37
2019-03-03T02:22:06.862Z,6.03
2019-03-03T02:24:35.890Z,6.97
2019-03-03T02:27:04.578Z,8.63
2019-03-03T02:29:33.267Z,15.53
2019-03-03T02:32:03.706Z,6.17
2019-03-03T02:34:32.403Z,6.37
2019-03-03T02:37:01.187Z,7.37
2019-03-03T02:39:29.960Z,7.50
2019-03-03T02:41:58.600Z,6.47
2019-03-03T02:44:27.328Z,7.13
2019-03-03T02:46:55.966Z,6.40
2019-03-03T02:49:24.709Z,6.97
2019-03-03T02:51:53.403Z,11.33
2019-03-03T02:54:22.181Z,7.00
2019-03-03T02:56:50.864Z,8.03
2019-03-03T02:59:19.556Z,7.03
2019-03-03T03:01:49.777Z,8.00
2019-03-03T03:04:18.559Z,5.77
2019-03-03T03:07:00.773Z,8.40
2019-03-03T03:09:31.092Z,6.20
2019-03-03T03:12:13.712Z,8.00
2019-03-03T03:14:46.863Z,5.60
2019-03-03T03:17:29.237Z,8.53
2019-03-03T03:20:15.710Z,8.23
2019-03-03T03:22:46.028Z,4.60
2019-03-03T03:25:25.287Z,6.13
2019-03-03T03:28:01.629Z,6.27
2019-03-03T03:30:40.872Z,6.90
2019-03-03T03:33:20.422Z,5.57
2019-03-03T03:35:56.873Z,3.40
2019-03-03T03:38:33.136Z,6.53
2019-03-03T03:41:06.375Z,6.03
2019-03-03T03:43:36.649Z,4.53
2019-03-03T03:46:19.164Z,9.93
2019-03-03T03:48:55.143Z,3.57
2019-03-03T03:51:28.426Z,7.57
2019-03-03T03:53:58.684Z,4.80
2019-03-03T03:56:35.217Z,5.27
2019-03-03T03:59:05.378Z,5.97
2019-03-03T04:01:35.659Z,4.80
2019-03-03T04:04:11.729Z,7.20
2019-03-03T04:06:42.055Z,6.20
2019-03-03T04:09:28.669Z,4.47
2019-03-03T04:12:01.648Z,4.33
2019-03-03T04:14:49.182Z,5.77
2019-03-03T04:17:35.471Z,3.40
2019-03-03T04:20:07.434Z,6.07
2019-03-03T04:22:53.838Z,5.30
2019-03-03T04:25:26.763Z,4.23
2019-03-03T04:28:15.275Z,7.93
2019-03-03T04:30:45.471Z,3.33
2019-03-03T04:33:27.706Z,5.83
2019-03-03T04:36:07.241Z,6.13
2019-03-03T04:38:49.432Z,5.27
2019-03-03T04:41:35.954Z,3.90
2019-03-03T04:44:06.169Z,6.10
2019-03-03T04:46:45.718Z,9.03
2019-03-03T04:49:18.803Z,4.23
2019-03-03T04:51:51.791Z,13.73
2019-03-03T04:54:40.344Z,4.50
2019-03-03T04:57:19.578Z,6.50
2019-03-03T04:59:53.074Z,5.93
2019-03-03T05:02:23.396Z,6.43
2019-03-03T05:04:56.589Z,5.60
2019-03-03T05:07:32.855Z,5.20
2019-03-03T05:10:09.115Z,7.40
2019-03-03T05:12:45.078Z,6.83
2019-03-03T05:15:21.138Z,6.90
2019-03-03T05:17:51.355Z,5.00
2019-03-03T05:20:20.098Z,5.37
2019-03-03T05:22:48.836Z,10.23
2019-03-03T05:25:17.624Z,6.00
2019-03-03T05:27:46.313Z,3.80
2019-03-03T05:30:15.508Z,4.77
2019-03-03T05:32:44.295Z,10.53
2019-03-03T05:35:13.245Z,4.57
2019-03-03T05:37:41.976Z,6.90
2019-03-03T05:40:10.676Z,5.33
2019-03-03T05:42:39.350Z,4.20
2019-03-03T05:45:08.613Z,4.17
2019-03-03T05:47:37.304Z,3.80
2019-03-03T05:50:07.057Z,4.17
2019-03-03T05:52:35.839Z,3.70
2019-03-03T05:55:06.160Z,4.97
2019-03-03T05:57:34.824Z,6.03
2019-03-03T06:00:04.234Z,4.07
2019-03-03T06:02:32.950Z,5.10
2019-03-03T06:05:02.861Z,6.43
2019-03-03T06:07:31.465Z,3.97
2019-03-03T06:10:00.299Z,5.57
2019-03-03T06:12:29.227Z,6.17
2019-03-03T06:14:57.844Z,2.97
2019-03-03T06:17:26.565Z,4.53
2019-03-03T06:19:55.239Z,7.37
2019-03-03T06:22:23.891Z,6.30
2019-03-03T06:24:52.580Z,4.73
2019-03-03T06:27:21.195Z,4.00
2019-03-03T06:29:49.865Z,4.47
2019-03-03T06:32:18.686Z,3.43
2019-03-03T06:34:47.264Z,5.70
2019-03-03T06:37:15.959Z,5.50
2019-03-03T06:39:44.700Z,4.67
2019-03-03T06:42:13.393Z,7.10
2019-03-03T06:44:43.582Z,3.70
2019-03-03T06:47:12.361Z,4.27
2019-03-03T06:49:41.320Z,4.23
2019-03-03T06:52:09.940Z,6.97
2019-03-03T06:54:40.677Z,5.47
2019-03-03T06:57:09.059Z,6.40
2019-03-03T06:59:37.686Z,9.70
2019-03-03T07:02:06.412Z,14.30
2019-03-03T07:04:35.105Z,12.23
2019-03-03T07:07:03.726Z,8.60
2019-03-03T07:09:32.411Z,10.80
2019-03-03T07:12:01.086Z,30.67
2019-03-03T07:14:29.816Z,9.67
2019-03-03T07:16:59.676Z,11.57
2019-03-03T07:19:28.678Z,10.23
2019-03-03T07:21:57.461Z,12.50
2019-03-03T07:24:26.098Z,8.23
2019-03-03T07:26:54.931Z,10.03
2019-03-03T07:29:24.030Z,7.50
2019-03-03T07:31:52.817Z,12.80
2019-03-03T07:34:21.918Z,11.90
2019-03-03T07:36:50.705Z,8.07
2019-03-03T07:39:19.593Z,7.53
2019-03-03T07:41:53.012Z,9.30
2019-03-03T07:44:23.319Z,18.80
2019-03-03T07:46:52.000Z,16.73
2019-03-03T07:49:20.729Z,14.60
2019-03-03T07:51:49.477Z,10.60
2019-03-03T07:54:18.367Z,14.10
2019-03-03T07:56:47.162Z,10.67
2019-03-03T07:59:16.144Z,10.97
2019-03-03T08:01:44.838Z,11.63
2019-03-03T08:04:13.539Z,15.60
2019-03-03T08:06:42.518Z,13.33
2019-03-03T08:09:11.307Z,10.03
2019-03-03T08:11:40.215Z,12.93
2019-03-03T08:14:08.882Z,17.00
2019-03-03T08:16:37.679Z,34.97
2019-03-03T08:19:06.361Z,35.10
2019-03-03T08:21:36.580Z,38.80
2019-03-03T08:24:05.392Z,28.37
2019-03-03T08:26:34.170Z,24.37
2019-03-03T08:29:02.858Z,13.27
2019-03-03T08:31:31.713Z,20.50
2019-03-03T08:34:02.743Z,15.97
2019-03-03T08:36:31.464Z,13.77
2019-03-03T08:39:00.361Z,12.67
2019-03-03T08:41:29.450Z,14.43
2019-03-03T08:44:01.024Z,9.07
2019-03-03T08:46:46.234Z,11.57
2019-03-03T08:49:35.421Z,20.00
2019-03-03T08:52:05.685Z,13.10
2019-03-03T08:54:39.149Z,5.63
2019-03-03T08:57:15.590Z,5.97
2019-03-03T08:59:52.065Z,6.20
2019-03-03T09:02:28.181Z,6.93
2019-03-03T09:05:17.330Z,6.17
2019-03-03T09:07:59.158Z,12.80
2019-03-03T09:10:29.476Z,8.43
2019-03-03T09:12:59.776Z,7.17
2019-03-03T09:15:41.769Z,8.70
2019-03-03T09:18:14.730Z,8.93
2019-03-03T09:20:44.933Z,7.57
2019-03-03T09:23:27.239Z,12.17
2019-03-03T09:26:00.316Z,10.70
2019-03-03T09:28:33.634Z,11.47
2019-03-03T09:31:08.710Z,11.10
2019-03-03T09:33:49.509Z,7.70
2019-03-03T09:36:22.645Z,12.63
2019-03-03T09:39:05.675Z,8.73
2019-03-03T09:41:54.371Z,5.93
2019-03-03T09:44:42.912Z,7.97
2019-03-03T09:47:13.325Z,7.77
2019-03-03T09:49:46.615Z,8.77
2019-03-03T09:52:17.059Z,6.90
2019-03-03T09:54:50.480Z,11.90
2019-03-03T09:57:40.216Z,7.83
2019-03-03T10:00:18.673Z,4.97
2019-03-03T10:02:51.897Z,7.07
2019-03-03T10:05:25.450Z,6.67
2019-03-03T10:08:14.390Z,5.63
2019-03-03T10:10:47.346Z,6.10
2019-03-03T10:13:23.597Z,5.23
2019-03-03T10:15:56.881Z,5.90
2019-03-03T10:18:28.565Z,6.10
2019-03-03T10:20:58.815Z,14.40
2019-03-03T10:26:36.334Z,5.93
2019-03-03T10:32:06.905Z,7.00
2019-03-03T10:34:44.617Z,7.00
2019-03-03T10:37:14.840Z,7.13
2019-03-03T10:39:45.116Z,7.40
2019-03-03T10:42:20.923Z,7.10
2019-03-03T10:44:51.171Z,9.23
2019-03-03T10:47:21.386Z,6.23
2019-03-03T10:49:57.504Z,6.70
2019-03-03T10:52:36.582Z,9.47
2019-03-03T10:55:11.409Z,5.63
2019-03-03T10:57:44.613Z,5.80
2019-03-03T11:00:35.325Z,4.30
2019-03-03T11:03:23.343Z,7.73
2019-03-03T11:06:09.859Z,5.17
2019-03-03T11:08:40.194Z,4.97
2019-03-03T11:11:10.559Z,4.97
2019-03-03T11:13:41.343Z,12.93
2019-03-03T11:16:17.689Z,4.63
2019-03-03T11:18:55.760Z,3.73
2019-03-03T11:21:22.901Z,9.63
2019-03-03T11:23:57.370Z,4.80
2019-03-03T11:26:30.573Z,5.40
2019-03-03T11:29:03.983Z,5.10
2019-03-03T11:31:50.563Z,3.60
2019-03-03T11:34:20.765Z,5.80
2019-03-03T11:36:57.273Z,9.63
2019-03-03T11:39:27.592Z,2.43
2019-03-03T11:42:00.594Z,5.00
2019-03-03T11:44:31.299Z,2.17
2019-03-03T11:47:02.871Z,2.20
2019-03-03T11:49:51.894Z,5.20
2019-03-03T11:52:27.766Z,0.83
2019-03-03T11:54:57.961Z,1.53
2019-03-03T11:57:46.123Z,3.90
2019-03-03T12:00:16.385Z,3.60
2019-03-03T12:02:54.199Z,2.57
2019-03-03T12:05:24.624Z,1.20
2019-03-03T12:08:10.999Z,2.03
2019-03-03T12:10:59.423Z,1.50
2019-03-03T12:13:32.454Z,2.47
2019-03-03T12:16:11.555Z,1.80
2019-03-03T12:18:47.637Z,7.23
2019-03-03T12:21:35.878Z,1.93
2019-03-03T12:24:08.923Z,1.43
2019-03-03T12:26:54.279Z,5.57
2019-03-03T12:29:30.641Z,2.90
2019-03-03T12:32:03.898Z,3.13
2019-03-03T12:34:39.995Z,1.90
2019-03-03T12:37:24.447Z,1.57
2019-03-03T12:40:10.041Z,0.90
2019-03-03T12:42:46.519Z,0.50
2019-03-03T12:45:36.148Z,0.50
2019-03-03T12:48:09.503Z,0.33
2019-03-03T12:50:56.112Z,0.90
2019-03-03T12:53:28.775Z,1.20
2019-03-03T12:55:59.014Z,0.60
2019-03-03T12:58:38.452Z,1.00
2019-03-03T13:01:25.345Z,0.40
2019-03-03T13:04:01.819Z,0.40
2019-03-03T13:06:32.141Z,0.40
2019-03-03T13:09:14.125Z,0.93
2019-03-03T13:11:59.679Z,1.53
2019-03-03T13:14:33.500Z,0.40
2019-03-03T13:17:23.028Z,1.57
2019-03-03T13:19:56.231Z,0.40
2019-03-03T13:22:36.712Z,0.40
2019-03-03T13:25:12.016Z,0.30
2019-03-03T13:27:51.403Z,0.97
2019-03-03T13:30:23.798Z,0.50
2019-03-03T13:32:53.581Z,0.30
2019-03-03T13:35:40.304Z,0.50
2019-03-03T13:38:28.801Z,0.53
2019-03-03T13:41:14.098Z,3.03
2019-03-03T13:43:43.228Z,0.50
2019-03-03T13:46:12.460Z,0.30
2019-03-03T13:48:43.377Z,0.40
2019-03-03T13:51:14.589Z,0.60
2019-03-03T13:53:43.315Z,0.50
2019-03-03T13:56:12.034Z,0.33
2019-03-03T13:58:40.727Z,0.70
2019-03-03T14:01:09.763Z,0.43
2019-03-03T14:03:38.379Z,0.40
2019-03-03T14:06:07.120Z,0.73
2019-03-03T14:08:35.755Z,0.90
2019-03-03T14:11:04.453Z,0.40
2019-03-03T14:13:33.105Z,2.63
2019-03-03T14:16:01.902Z,0.40
2019-03-03T14:18:30.587Z,0.30
2019-03-03T14:20:59.324Z,9.03
2019-03-03T14:23:28.085Z,0.40
2019-03-03T14:25:59.029Z,0.43
2019-03-03T14:28:28.588Z,0.40
2019-03-03T14:30:57.449Z,0.30
2019-03-03T14:33:26.506Z,0.40
2019-03-03T14:35:55.264Z,0.30
2019-03-03T14:38:24.022Z,0.43
2019-03-03T14:40:52.810Z,0.40
2019-03-03T14:43:22.594Z,0.30
2019-03-03T14:45:51.316Z,0.40
2019-03-03T14:48:20.015Z,0.60
2019-03-03T14:50:54.285Z,7.47
2019-03-03T14:53:23.268Z,0.70
2019-03-03T14:55:51.935Z,0.83
2019-03-03T14:58:20.639Z,0.40
2019-03-03T15:00:51.127Z,0.63
2019-03-03T15:03:19.870Z,1.00
2019-03-03T15:05:48.741Z,3.43
2019-03-03T15:08:18.827Z,1.70
2019-03-03T15:10:48.629Z,1.30
2019-03-03T15:13:17.482Z,0.30
2019-03-03T15:15:46.127Z,0.73
2019-03-03T15:18:15.088Z,0.90
2019-03-03T15:20:43.945Z,1.53
2019-03-03T15:23:17.108Z,0.30
2019-03-03T15:25:46.318Z,0.37
2019-03-03T15:28:15.236Z,1.53
2019-03-03T15:30:43.938Z,4.20
2019-03-03T15:33:14.971Z,1.27
2019-03-03T15:35:44.092Z,2.00
2019-03-03T15:38:12.705Z,0.60
2019-03-03T15:40:43.011Z,0.40
2019-03-03T15:43:13.186Z,3.50
2019-03-03T15:45:41.833Z,0.40
2019-03-03T15:48:18.507Z,0.50
2019-03-03T15:50:47.361Z,1.33
2019-03-03T15:53:16.043Z,0.40
2019-03-03T15:55:44.695Z,0.33
2019-03-03T15:58:13.376Z,0.60
2019-03-03T16:00:44.823Z,0.53
2019-03-03T16:03:14.055Z,5.63
2019-03-03T16:05:42.759Z,2.50
2019-03-03T16:08:11.396Z,0.43
2019-03-03T16:10:40.182Z,1.13
2019-03-03T16:13:08.873Z,0.97
2019-03-03T16:15:39.182Z,1.20
2019-03-03T16:18:07.880Z,0.67
2019-03-03T16:20:36.544Z,0.40
2019-03-03T16:23:05.329Z,0.57
2019-03-03T16:25:34.404Z,0.87
2019-03-03T16:28:03.086Z,5.83
2019-03-03T16:30:31.694Z,0.97
2019-03-03T16:33:00.425Z,1.43
2019-03-03T16:35:29.045Z,0.40
2019-03-03T16:37:57.848Z,1.37
2019-03-03T16:40:27.050Z,0.50
2019-03-03T16:42:58.735Z,13.33
2019-03-03T16:45:27.475Z,5.73
2019-03-03T16:47:59.195Z,1.57
2019-03-03T16:50:27.819Z,0.50
2019-03-03T16:52:56.451Z,1.13
2019-03-03T16:55:25.134Z,2.33
2019-03-03T16:57:53.837Z,0.60
2019-03-03T17:00:23.748Z,1.33
2019-03-03T17:02:52.480Z,0.60
2019-03-03T17:05:23.444Z,1.37
2019-03-03T17:07:53.526Z,3.33
2019-03-03T17:10:23.778Z,2.33
2019-03-03T17:12:54.073Z,1.60
2019-03-03T17:15:27.272Z,11.80
2019-03-03T17:17:55.975Z,0.50
2019-03-03T17:20:24.627Z,1.20
2019-03-03T17:22:53.558Z,0.87
2019-03-03T17:25:25.264Z,0.60
2019-03-03T17:27:54.159Z,0.30
2019-03-03T17:30:25.387Z,0.83
2019-03-03T17:32:55.609Z,1.17
2019-03-03T17:35:26.156Z,1.13
2019-03-03T17:37:56.731Z,0.80
2019-03-03T17:40:30.649Z,0.60
2019-03-03T17:43:02.578Z,1.37
2019-03-03T17:45:33.103Z,0.87
2019-03-03T17:48:02.057Z,2.23
2019-03-03T17:50:32.795Z,0.53
2019-03-03T17:53:01.859Z,0.80
2019-03-03T17:55:30.644Z,0.80
2019-03-03T17:57:59.354Z,4.67
2019-03-03T18:00:46.258Z,1.50
2019-03-03T18:03:15.366Z,0.80
2019-03-03T18:05:44.092Z,1.20
2019-03-03T18:08:13.011Z,2.20
2019-03-03T18:10:41.847Z,3.90
2019-03-03T18:13:11.276Z,2.87
2019-03-03T18:15:40.192Z,3.67
2019-03-03T18:18:09.144Z,1.77
2019-03-03T18:20:38.319Z,2.70
2019-03-03T18:23:10.004Z,7.20
2019-03-03T18:25:40.304Z,2.07
2019-03-03T18:28:10.249Z,3.90
2019-03-03T18:30:40.552Z,2.50
2019-03-03T18:33:09.777Z,2.10
2019-03-03T18:35:38.854Z,6.80
2019-03-03T18:38:08.997Z,1.93
2019-03-03T18:40:37.863Z,3.03
2019-03-03T18:43:07.229Z,1.53
2019-03-03T18:45:36.055Z,1.03
2019-03-03T18:48:05.177Z,1.23
2019-03-03T18:50:33.979Z,2.43
2019-03-03T18:53:02.634Z,2.33
2019-03-03T18:55:31.397Z,0.60
2019-03-03T18:58:01.926Z,1.37
2019-03-03T19:00:32.288Z,2.40
2019-03-03T19:03:01.409Z,1.00
2019-03-03T19:05:32.991Z,3.40
2019-03-03T19:08:03.350Z,0.93
2019-03-03T19:10:37.907Z,1.13
2019-03-03T19:13:06.746Z,2.80
2019-03-03T19:15:35.540Z,2.93
2019-03-03T19:18:06.926Z,6.07
2019-03-03T19:20:36.483Z,1.87
2019-03-03T19:23:05.488Z,0.73
2019-03-03T19:25:34.598Z,1.00
2019-03-03T19:28:06.771Z,2.43
2019-03-03T19:30:37.436Z,0.53
2019-03-03T19:33:18.700Z,0.63
2019-03-03T19:35:47.885Z,1.30
2019-03-03T19:38:16.783Z,10.47
2019-03-03T19:40:46.230Z,2.40
2019-03-03T19:43:16.483Z,3.17
2019-03-03T19:45:53.068Z,2.40
2019-03-03T19:48:22.102Z,2.03
2019-03-03T19:50:50.836Z,1.60
2019-03-03T19:53:21.264Z,6.47
2019-03-03T19:55:50.169Z,2.57
2019-03-03T19:58:22.152Z,3.87
2019-03-03T20:00:51.123Z,3.00
2019-03-03T20:03:21.743Z,1.50
2019-03-03T20:05:51.635Z,2.70
2019-03-03T20:08:20.696Z,2.40
2019-03-03T20:10:49.464Z,1.43
2019-03-03T20:13:18.215Z,6.93
2019-03-03T20:15:47.872Z,1.57
2019-03-03T20:18:18.762Z,1.87
2019-03-03T20:20:48.694Z,1.50
2019-03-03T20:23:19.348Z,3.23
2019-03-03T20:25:50.784Z,1.73
2019-03-03T20:28:21.845Z,1.63
2019-03-03T20:30:54.417Z,2.27
2019-03-03T20:33:25.406Z,0.90
2019-03-03T20:35:54.172Z,1.70
2019-03-03T20:38:25.774Z,2.00
2019-03-03T20:40:56.794Z,4.63
2019-03-03T20:43:28.027Z,5.20
2019-03-03T20:45:56.708Z,3.20
2019-03-03T20:48:25.641Z,2.37
2019-03-03T20:50:55.344Z,2.23
2019-03-03T20:53:24.079Z,4.73
2019-03-03T20:55:53.028Z,1.80
2019-03-03T20:58:21.717Z,1.00
2019-03-03T21:00:50.511Z,1.70
2019-03-03T21:03:21.678Z,1.90
2019-03-03T21:05:50.120Z,1.70
2019-03-03T21:08:18.799Z,1.10
2019-03-03T21:10:47.441Z,4.77
2019-03-03T21:13:16.188Z,1.73
2019-03-03T21:15:45.073Z,1.70
2019-03-03T21:18:14.277Z,1.10
2019-03-03T21:20:43.069Z,1.73
2019-03-03T21:23:14.926Z,2.40
2019-03-03T21:25:44.628Z,2.60
2019-03-03T21:28:13.317Z,1.73
2019-03-03T21:30:42.012Z,1.90
2019-03-03T21:33:12.065Z,1.30
2019-03-03T21:35:40.707Z,7.83
2019-03-03T21:38:10.955Z,2.70
2019-03-03T21:40:39.711Z,1.73
2019-03-03T21:43:09.786Z,2.70
2019-03-03T21:45:38.417Z,1.43
2019-03-03T21:48:07.320Z,2.20
2019-03-03T21:50:35.937Z,4.83
2019-03-03T21:53:04.691Z,2.77
2019-03-03T21:55:36.241Z,4.50
2019-03-03T21:58:05.447Z,5.77
2019-03-03T22:00:42.110Z,7.60
2019-03-03T22:03:10.887Z,6.57
2019-03-03T22:05:39.568Z,4.50
2019-03-03T22:08:08.261Z,3.63
2019-03-03T22:10:37.075Z,5.67
2019-03-03T22:13:10.909Z,6.40
2019-03-03T22:15:39.819Z,4.57
2019-03-03T22:18:08.699Z,6.03
2019-03-03T22:20:37.406Z,4.93
2019-03-03T22:23:06.062Z,5.40
2019-03-03T22:25:34.804Z,3.43
2019-03-03T22:28:03.403Z,1.87
2019-03-03T22:30:32.210Z,1.90
2019-03-03T22:33:00.987Z,0.80
2019-03-03T22:35:29.612Z,1.27
2019-03-03T22:37:59.896Z,1.10
2019-03-03T22:40:28.582Z,1.10
2019-03-03T22:42:57.520Z,4.00
2019-03-03T22:45:26.140Z,0.90
2019-03-03T22:47:54.816Z,1.67
2019-03-03T22:50:23.453Z,1.50
2019-03-03T22:52:52.135Z,4.03
2019-03-03T22:55:21.746Z,1.40
2019-03-03T22:57:50.416Z,5.77
2019-03-03T23:00:55.227Z,6.80
2019-03-03T23:03:32.935Z,0.70
2019-03-03T23:06:28.851Z,5.00
2019-03-03T23:09:12.766Z,1.50
2019-03-03T23:12:08.514Z,8.17
2019-03-03T23:14:56.759Z,3.30
2019-03-03T23:17:34.371Z,1.60
2019-03-03T23:20:30.180Z,0.87
2019-03-03T23:23:07.834Z,0.70
2019-03-03T23:25:53.666Z,1.03
2019-03-03T23:28:22.336Z,2.77
2019-03-03T23:30:51.340Z,1.00
2019-03-03T23:33:20.237Z,0.90
2019-03-03T23:35:49.248Z,0.80
2019-03-03T23:38:18.016Z,1.07
2019-03-03T23:40:46.705Z,0.73
2019-03-03T23:43:15.383Z,1.30
2019-03-03T23:45:44.071Z,2.07
2019-03-03T23:48:13.475Z,3.23
2019-03-03T23:50:42.164Z,0.90
2019-03-03T23:53:10.954Z,0.80
2019-03-03T23:55:40.969Z,1.40
2019-03-03T23:58:11.417Z,0.53
